Time;durP1;ratioP1;P1;durP2;ratioP2;P2;SDS_P1;SDS_P2;PMS_P1;PMS_P2;Temp;Humidity;BMP_temperature;BMP_pressure;BME280_temperature;BME280_humidity;BME280_pressure;Samples;Min_cycle;Max_cycle;Signal;HPM_P1;HPM_P2
2023/06/08 00:00:20;;;;;;;;;;;;;;;29.31;36.00;96117.44;4964584;28;19965;-46
2023/06/08 00:02:48;;;;;;;;;;;;;;;28.93;36.32;96120.66;4961138;28;19965;-45
2023/06/08 00:05:17;;;;;;;;;;;;;;;29.16;36.36;96117.47;4963085;28;19970;-45
2023/06/08 00:07:46;;;;;;;;;;;;;;;29.12;36.26;96118.28;4961146;28;20018;-47
2023/06/08 00:10:15;;;;;;;;;;;;;;;29.54;35.61;96109.84;4961997;28;19965;-45
2023/06/08 00:12:44;;;;;;;;;;;;;;;28.03;37.64;96120.91;4966932;28;19961;-47
2023/06/08 00:15:13;;;;;;;;;;;;;;;27.88;37.82;96118.94;4960425;28;20057;-47
2023/06/08 00:17:43;;;;;;;;;;;;;;;28.80;36.49;96098.41;4959965;28;19961;-43
2023/06/08 00:20:13;;;;;;;;;;;;;;;28.39;36.79;96111.06;4967094;28;19969;-44
2023/06/08 00:22:42;;;;;;;;;;;;;;;28.08;37.48;96116.34;4965237;28;19956;-45
2023/06/08 00:25:11;;;;;;;;;;;;;;;28.37;37.71;96102.34;4961507;28;19957;-50
2023/06/08 00:27:39;;;;;;;;;;;;;;;28.87;36.52;96100.84;4962522;28;19980;-48
2023/06/08 00:30:09;;;;;;;;;;;;;;;28.79;36.62;96095.94;4954438;28;20426;-50
2023/06/08 00:32:37;;;;;;;;;;;;;;;28.88;36.97;96098.97;4968764;28;19965;-45
2023/06/08 00:35:06;;;;;;;;;;;;;;;28.89;36.80;96101.38;4964064;28;19957;-46
2023/06/08 00:37:35;;;;;;;;;;;;;;;28.97;36.71;96108.19;4961999;28;19957;-47
2023/06/08 00:40:05;;;;;;;;;;;;;;;28.95;36.63;96107.66;4962874;28;20003;-49
2023/06/08 00:42:34;;;;;;;;;;;;;;;27.81;36.95;96102.91;4974453;28;19957;-48
2023/06/08 00:45:02;;;;;;;;;;;;;;;28.27;37.40;96107.72;4962891;28;19949;-45
2023/06/08 00:47:31;;;;;;;;;;;;;;;28.18;37.67;96101.97;4972119;28;19965;-46
2023/06/08 00:50:00;;;;;;;;;;;;;;;28.11;37.80;96115.81;4967132;28;19954;-51
2023/06/08 00:52:28;;;;;;;;;;;;;;;28.24;38.14;96108.25;4962579;28;19972;-45
2023/06/08 00:54:58;;;;;;;;;;;;;;;28.53;37.65;96104.06;4959091;28;20351;-47
2023/06/08 00:57:28;;;;;;;;;;;;;;;27.82;39.22;96101.84;4957211;28;19977;-47
2023/06/08 00:59:57;;;;;;;;;;;;;;;27.77;38.74;96103.69;4963223;28;19969;-49
2023/06/08 01:02:25;;;;;;;;;;;;;;;28.49;37.88;96105.66;4973416;28;19972;-45
2023/06/08 01:04:56;;;;;;;;;;;;;;;28.49;37.59;96105.66;4964028;28;20002;-44
2023/06/08 01:07:27;;;;;;;;;;;;;;;27.61;39.28;96100.88;4965447;28;19965;-47
2023/06/08 01:09:56;;;;;;;;;;;;;;;28.12;38.82;96097.66;4959113;28;19973;-44
2023/06/08 01:12:29;;;;;;;;;;;;;;;28.69;37.86;96102.16;4970331;28;20402;-49
2023/06/08 01:14:59;;;;;;;;;;;;;;;28.72;37.85;96092.69;4961884;28;19969;-46
2023/06/08 01:17:29;;;;;;;;;;;;;;;28.79;37.60;96093.22;4964353;28;19969;-44
2023/06/08 01:20:18;;;;;;;;;;;;;;;28.80;37.57;96090.28;4958517;28;19957;-46
2023/06/08 01:22:56;;;;;;;;;;;;;;;28.64;37.70;96094.03;4959933;28;19969;-45
2023/06/08 01:25:26;;;;;;;;;;;;;;;28.27;38.43;96091.44;4965223;28;19961;-46
2023/06/08 01:27:58;;;;;;;;;;;;;;;27.45;40.05;96096.41;4955724;28;19954;-47
2023/06/08 01:30:27;;;;;;;;;;;;;;;27.66;39.45;96089.25;4962588;28;20397;-45
2023/06/08 01:32:55;;;;;;;;;;;;;;;28.35;38.20;96088.22;4959396;28;20513;-50
2023/06/08 01:35:23;;;;;;;;;;;;;;;28.40;36.97;96088.28;4960627;28;19972;-51
2023/06/08 01:37:53;;;;;;;;;;;;;;;28.43;37.37;96082.31;4960364;28;19969;-49
2023/06/08 01:40:23;;;;;;;;;;;;;;;28.38;37.24;96083.09;4965964;28;19987;-50
2023/06/08 01:42:53;;;;;;;;;;;;;;;28.25;37.57;96074.63;4965226;28;20431;-46
2023/06/08 01:45:21;;;;;;;;;;;;;;;28.44;37.43;96072.28;4964446;28;20381;-46
2023/06/08 01:47:52;;;;;;;;;;;;;;;27.71;38.56;96075.72;4961857;28;19957;-45
2023/06/08 01:50:20;;;;;;;;;;;;;;;27.77;38.50;96066.59;4959354;28;19954;-47
2023/06/08 01:52:48;;;;;;;;;;;;;;;27.26;39.55;96065.44;4958437;28;20382;-45
2023/06/08 01:55:17;;;;;;;;;;;;;;;28.00;38.11;96067.22;4961981;28;20382;-43
2023/06/08 01:57:45;;;;;;;;;;;;;;;28.12;37.77;96067.81;4966522;28;19949;-45
2023/06/08 02:00:15;;;;;;;;;;;;;;;28.27;37.13;96073.28;4964738;28;19965;-44
2023/06/08 02:02:44;;;;;;;;;;;;;;;28.25;37.18;96072.75;4972886;28;19965;-45
2023/06/08 02:05:13;;;;;;;;;;;;;;;28.20;37.26;96071.91;4961824;28;19954;-49
2023/06/08 02:07:41;;;;;;;;;;;;;;;28.07;37.36;96068.59;4957967;28;19968;-46
2023/06/08 02:10:10;;;;;;;;;;;;;;;27.84;38.03;96078.00;4961081;28;20421;-45
2023/06/08 02:12:38;;;;;;;;;;;;;;;27.71;38.42;96080.34;4962635;28;20507;-45
2023/06/08 02:15:07;;;;;;;;;;;;;;;27.32;39.29;96081.44;4966476;28;20624;-49
2023/06/08 02:17:36;;;;;;;;;;;;;;;27.35;39.65;96074.69;4963042;28;19956;-47
2023/06/08 02:20:06;;;;;;;;;;;;;;;26.41;41.64;96076.78;4968622;28;19957;-46
2023/06/08 02:22:36;;;;;;;;;;;;;;;27.56;39.63;96072.91;4965521;28;20413;-47
2023/06/08 02:25:04;;;;;;;;;;;;;;;27.49;40.30;96075.84;4964848;28;19961;-45
2023/06/08 02:27:35;;;;;;;;;;;;;;;27.56;39.68;96072.91;4954803;28;20418;-45
2023/06/08 02:30:04;;;;;;;;;;;;;;;27.51;38.68;96075.63;4961252;28;19965;-46
2023/06/08 02:32:33;;;;;;;;;;;;;;;27.56;38.66;96079.16;4960068;28;19964;-45
2023/06/08 02:35:03;;;;;;;;;;;;;;;26.99;39.67;96087.94;4961405;28;19976;-50
2023/06/08 02:37:32;;;;;;;;;;;;;;;26.53;41.23;96087.47;4956180;28;19972;-51
2023/06/08 02:40:02;;;;;;;;;;;;;;;25.71;43.25;96083.78;4958665;28;19954;-49
2023/06/08 02:42:31;;;;;;;;;;;;;;;25.59;43.65;96091.16;4959807;28;19968;-49
2023/06/08 02:44:59;;;;;;;;;;;;;;;25.34;44.47;96100.50;4959480;28;19957;-43
2023/06/08 02:47:27;;;;;;;;;;;;;;;25.92;42.92;96093.00;4964317;28;19922;-46
2023/06/08 02:49:55;;;;;;;;;;;;;;;26.80;40.78;96092.88;4958433;28;19969;-49
2023/06/08 02:52:25;;;;;;;;;;;;;;;26.79;40.60;96090.44;4961214;28;20036;-47
2023/06/08 02:54:53;;;;;;;;;;;;;;;27.04;40.05;96087.16;4957512;28;19953;-44
2023/06/08 02:57:21;;;;;;;;;;;;;;;26.72;41.12;96087.94;4964358;28;19968;-48
2023/06/08 02:59:49;;;;;;;;;;;;;;;26.92;41.62;96079.22;4956923;28;21705;-46
2023/06/08 03:02:17;;;;;;;;;;;;;;;27.07;40.80;96092.03;4962927;28;20579;-50
2023/06/08 03:04:45;;;;;;;;;;;;;;;27.08;40.98;96086.38;4953359;28;20363;-45
2023/06/08 03:07:15;;;;;;;;;;;;;;;26.96;41.25;96083.84;4959553;28;19961;-49
2023/06/08 03:09:45;;;;;;;;;;;;;;;27.13;41.13;96091.06;4958025;28;19974;-45
2023/06/08 03:12:13;;;;;;;;;;;;;;;27.45;40.21;96086.41;4958291;28;19973;-52
2023/06/08 03:14:41;;;;;;;;;;;;;;;27.62;38.81;96088.13;4957041;28;19972;-46
2023/06/08 03:17:10;;;;;;;;;;;;;;;27.36;38.04;96089.88;4957636;28;19999;-48
2023/06/08 03:19:38;;;;;;;;;;;;;;;26.60;39.50;96103.50;4953147;28;20441;-48
2023/06/08 03:22:07;;;;;;;;;;;;;;;26.92;39.48;96100.84;4957145;28;19964;-44
2023/06/08 03:24:35;;;;;;;;;;;;;;;27.04;39.75;96103.38;4952449;28;19961;-45
2023/06/08 03:27:05;;;;;;;;;;;;;;;27.39;39.06;96092.03;4956130;28;19961;-49
2023/06/08 03:29:33;;;;;;;;;;;;;;;27.16;39.74;96098.66;4951330;28;19966;-48
2023/06/08 03:32:02;;;;;;;;;;;;;;;27.58;39.22;96089.75;4950922;28;19972;-45
2023/06/08 03:34:30;;;;;;;;;;;;;;;27.61;39.13;96087.31;4955318;28;19957;-48
2023/06/08 03:36:58;;;;;;;;;;;;;;;27.67;37.62;96090.88;4955505;28;19961;-45
2023/06/08 03:39:26;;;;;;;;;;;;;;;27.69;37.16;96088.72;4959428;28;19980;-47
2023/06/08 03:41:54;;;;;;;;;;;;;;;27.68;36.60;96087.91;4953585;28;19981;-51
2023/06/08 03:44:23;;;;;;;;;;;;;;;27.29;36.52;96097.38;4956126;28;19965;-48
2023/06/08 03:46:51;;;;;;;;;;;;;;;26.90;37.10;96101.09;4957551;28;19973;-45
2023/06/08 03:49:20;;;;;;;;;;;;;;;26.41;39.08;96103.84;4957191;28;19970;-45
2023/06/08 03:51:48;;;;;;;;;;;;;;;26.61;40.49;96100.56;4954258;28;19964;-49
2023/06/08 03:54:16;;;;;;;;;;;;;;;27.62;38.89;96101.69;4960605;28;20422;-44
2023/06/08 03:56:44;;;;;;;;;;;;;;;27.71;38.16;96102.00;4955875;28;20454;-46
2023/06/08 03:59:12;;;;;;;;;;;;;;;29.12;36.10;96100.09;4956150;28;19958;-46
2023/06/08 04:01:45;;;;;;;;;;;;;;;29.30;35.99;96104.16;4950151;28;20363;-51
2023/06/08 04:04:13;;;;;;;;;;;;;;;30.11;35.34;96089.63;4959056;28;20351;-50
2023/06/08 04:06:41;;;;;;;;;;;;;;;30.86;34.31;96091.44;4954774;28;19957;-49
2023/06/08 04:09:09;;;;;;;;;;;;;;;30.29;34.86;96098.28;4959031;28;20057;-48
2023/06/08 04:11:37;;;;;;;;;;;;;;;31.29;34.07;96097.09;4959379;28;19993;-45
2023/06/08 04:14:05;;;;;;;;;;;;;;;31.80;33.55;96092.00;4958196;28;19976;-48
2023/06/08 04:16:33;;;;;;;;;;;;;;;32.54;32.47;96095.25;4953894;28;19965;-49
2023/06/08 04:19:03;;;;;;;;;;;;;;;33.19;30.83;96091.03;4956188;28;19954;-46
2023/06/08 04:21:31;;;;;;;;;;;;;;;33.00;30.94;96102.81;4954026;28;19962;-44
2023/06/08 04:24:00;;;;;;;;;;;;;;;33.41;30.72;96099.41;4953348;28;19950;-45
2023/06/08 04:26:28;;;;;;;;;;;;;;;33.21;30.94;96095.09;4956806;28;20367;-45
2023/06/08 04:28:56;;;;;;;;;;;;;;;33.55;30.63;96105.75;4958657;28;20378;-46
2023/06/08 04:31:25;;;;;;;;;;;;;;;33.45;31.14;96096.88;4957856;28;19953;-49
2023/06/08 04:33:54;;;;;;;;;;;;;;;33.67;30.93;96097.06;4956112;28;19962;-43
2023/06/08 04:36:24;;;;;;;;;;;;;;;33.52;30.88;96100.88;4956034;28;19922;-43
2023/06/08 04:38:52;;;;;;;;;;;;;;;33.70;30.95;96096.47;4954135;28;20051;-43
2023/06/08 04:41:23;;;;;;;;;;;;;;;33.77;30.77;96099.63;4959185;28;19974;-46
2023/06/08 04:43:52;;;;;;;;;;;;;;;33.71;31.20;96092.59;4957147;28;19960;-46
2023/06/08 04:46:25;;;;;;;;;;;;;;;34.19;30.12;96095.00;4957500;28;19934;-47
2023/06/08 04:48:55;;;;;;;;;;;;;;;33.94;30.94;96101.75;4960281;28;19960;-49
2023/06/08 04:51:24;;;;;;;;;;;;;;;34.28;30.45;96105.25;4956938;28;19965;-51
2023/06/08 04:53:54;;;;;;;;;;;;;;;34.68;30.02;96109.84;4958201;28;20425;-49
2023/06/08 04:56:23;;;;;;;;;;;;;;;34.08;30.98;96106.47;4959885;28;20563;-48
2023/06/08 04:58:52;;;;;;;;;;;;;;;33.92;31.40;96108.63;4956509;28;19954;-50
2023/06/08 05:01:20;;;;;;;;;;;;;;;34.77;30.54;96109.16;4961064;28;19978;-49
2023/06/08 05:03:48;;;;;;;;;;;;;;;35.40;29.87;96111.75;4961891;28;19996;-51
2023/06/08 05:06:16;;;;;;;;;;;;;;;35.71;29.51;96112.94;4963289;28;19969;-46
2023/06/08 05:08:45;;;;;;;;;;;;;;;35.98;29.39;96114.69;4966175;28;19965;-46
2023/06/08 05:11:13;;;;;;;;;;;;;;;35.01;30.02;96117.94;4963105;28;19965;-44
2023/06/08 05:13:42;;;;;;;;;;;;;;;34.47;31.84;96117.69;4963003;28;19964;-48
2023/06/08 05:16:10;;;;;;;;;;;;;;;34.32;31.78;96123.47;4962770;28;20290;-50
2023/06/08 05:18:38;;;;;;;;;;;;;;;33.41;33.08;96126.72;4960284;28;19964;-49
2023/06/08 05:21:06;;;;;;;;;;;;;;;35.45;30.96;96126.50;4954354;28;19977;-52
2023/06/08 05:23:34;;;;;;;;;;;;;;;35.80;30.63;96127.53;4962761;28;19965;-49
2023/06/08 05:26:04;;;;;;;;;;;;;;;35.95;30.52;96124.38;4958932;28;19969;-45
2023/06/08 05:28:32;;;;;;;;;;;;;;;36.57;30.25;96123.50;4958603;28;19966;-46
2023/06/08 05:31:00;;;;;;;;;;;;;;;36.18;31.38;96121.59;4958087;28;19961;-51
2023/06/08 05:33:29;;;;;;;;;;;;;;;34.99;33.25;96122.06;4955946;28;20429;-48
2023/06/08 05:35:57;;;;;;;;;;;;;;;32.72;36.34;96125.59;4961606;28;19962;-50
2023/06/08 05:38:32;;;;;;;;;;;;;;;33.79;35.15;96115.72;4958461;28;19961;-50
2023/06/08 05:41:00;;;;;;;;;;;;;;;32.23;37.60;96122.09;4959413;28;19968;-48
2023/06/08 05:43:29;;;;;;;;;;;;;;;34.79;34.43;96109.63;4962722;28;19980;-47
2023/06/08 05:45:57;;;;;;;;;;;;;;;34.73;34.24;96117.16;4957932;28;19976;-43
2023/06/08 05:48:25;;;;;;;;;;;;;;;34.67;33.40;96121.13;4963306;28;19957;-45
2023/06/08 05:50:53;;;;;;;;;;;;;;;33.00;36.36;96126.56;4963743;28;19965;-44
2023/06/08 05:53:21;;;;;;;;;;;;;;;33.03;36.68;96120.50;4953159;28;19960;-45
2023/06/08 05:55:50;;;;;;;;;;;;;;;33.86;36.07;96123.53;4967323;28;20709;-48
2023/06/08 05:58:18;;;;;;;;;;;;;;;33.49;36.49;96117.91;4963542;28;20469;-47
2023/06/08 06:00:48;;;;;;;;;;;;;;;33.36;36.79;96120.56;4964897;28;19969;-43
2023/06/08 06:03:16;;;;;;;;;;;;;;;31.75;39.27;96121.22;4964600;28;19969;-46
2023/06/08 06:05:44;;;;;;;;;;;;;;;32.38;38.88;96116.44;4970537;28;19964;-49
2023/06/08 06:08:12;;;;;;;;;;;;;;;33.26;37.66;96113.31;4962226;28;19992;-45
2023/06/08 06:10:40;;;;;;;;;;;;;;;34.12;36.33;96112.94;4959423;28;19969;-44
2023/06/08 06:13:08;;;;;;;;;;;;;;;31.96;38.32;96113.66;4957242;28;19961;-50
2023/06/08 06:15:36;;;;;;;;;;;;;;;32.75;37.27;96114.06;4965715;28;20339;-45
2023/06/08 06:18:06;;;;;;;;;;;;;;;33.55;36.24;96115.88;4962126;28;20459;-46
2023/06/08 06:20:34;;;;;;;;;;;;;;;33.63;36.02;96112.47;4958814;28;19965;-49
2023/06/08 06:23:02;;;;;;;;;;;;;;;32.13;37.75;96116.75;4958570;28;19954;-47
2023/06/08 06:25:30;;;;;;;;;;;;;;;33.01;36.99;96115.34;4962500;28;19972;-49
2023/06/08 06:27:58;;;;;;;;;;;;;;;32.59;37.88;96117.03;4963486;28;20382;-50
2023/06/08 06:30:26;;;;;;;;;;;;;;;32.43;38.29;96112.06;4964559;28;19962;-48
2023/06/08 06:32:54;;;;;;;;;;;;;;;32.09;38.87;96121.16;4964121;28;19964;-48
2023/06/08 06:35:24;;;;;;;;;;;;;;;33.19;36.72;96110.16;4962064;28;20423;-48
2023/06/08 06:37:53;;;;;;;;;;;;;;;32.70;37.47;96111.44;4961503;28;19961;-53
2023/06/08 06:40:21;;;;;;;;;;;;;;;32.47;37.52;96116.63;4954623;28;19975;-48
2023/06/08 06:42:49;;;;;;;;;;;;;;;33.01;36.55;96120.81;4960913;28;19990;-47
2023/06/08 06:45:17;;;;;;;;;;;;;;;32.99;36.74;96120.28;4959750;28;19969;-46
2023/06/08 06:47:45;;;;;;;;;;;;;;;34.36;34.84;96116.28;4963485;28;19961;-50
2023/06/08 06:50:13;;;;;;;;;;;;;;;33.47;35.75;96124.72;4960861;28;19976;-52
2023/06/08 06:52:43;;;;;;;;;;;;;;;32.46;37.35;96131.41;4954979;28;19965;-46
2023/06/08 06:55:11;;;;;;;;;;;;;;;34.04;35.22;96127.34;4962376;28;19961;-49
2023/06/08 06:57:40;;;;;;;;;;;;;;;35.24;33.91;96126.16;4961156;28;19958;-52
2023/06/08 07:00:10;;;;;;;;;;;;;;;34.42;35.69;96120.53;4964070;28;19960;-47
2023/06/08 07:02:40;;;;;;;;;;;;;;;34.79;34.07;96120.59;4970202;28;20345;-47
2023/06/08 07:05:10;;;;;;;;;;;;;;;34.93;34.26;96121.38;4962023;28;20476;-51
2023/06/08 07:07:38;;;;;;;;;;;;;;;34.73;34.10;96122.66;4961638;28;20344;-49
2023/06/08 07:10:07;;;;;;;;;;;;;;;35.45;33.47;96116.31;4960456;28;19976;-52
2023/06/08 07:12:36;;;;;;;;;;;;;;;34.86;34.29;96127.28;4970731;28;19958;-49
2023/06/08 07:15:04;;;;;;;;;;;;;;;35.69;33.54;96126.16;4962627;28;19950;-49
2023/06/08 07:17:32;;;;;;;;;;;;;;;36.69;32.19;96117.41;4962326;28;19972;-46
2023/06/08 07:20:01;;;;;;;;;;;;;;;34.39;35.37;96128.56;4961646;28;19960;-45
2023/06/08 07:22:30;;;;;;;;;;;;;;;34.58;35.78;96121.03;4964103;28;19957;-45
2023/06/08 07:25:19;;;;;;;;;;;;;;;33.93;36.21;96124.78;4956953;28;19984;-49
2023/06/08 07:28:08;;;;;;;;;;;;;;;36.27;33.74;96119.66;4957245;28;20346;-45
2023/06/08 07:30:36;;;;;;;;;;;;;;;35.25;35.28;96122.31;4961990;28;19988;-50
2023/06/08 07:33:04;;;;;;;;;;;;;;;35.63;34.34;96117.28;4965284;28;19957;-47
2023/06/08 07:35:32;;;;;;;;;;;;;;;36.79;33.03;96117.91;4955868;28;19972;-48
2023/06/08 07:38:00;;;;;;;;;;;;;;;35.83;33.73;96115.94;4955080;28;19972;-51
2023/06/08 07:40:30;;;;;;;;;;;;;;;36.10;34.15;96123.19;4970201;28;20628;-51
2023/06/08 07:42:58;;;;;;;;;;;;;;;35.22;35.32;96122.94;4957367;28;20519;-47
2023/06/08 07:45:27;;;;;;;;;;;;;;;34.95;35.48;96121.88;4967414;28;19964;-48
2023/06/08 07:47:55;;;;;;;;;;;;;;;34.27;36.58;96112.63;4965725;28;19958;-50
2023/06/08 07:50:23;;;;;;;;;;;;;;;34.68;35.99;96122.75;4953036;28;19970;-52
2023/06/08 07:52:51;;;;;;;;;;;;;;;35.19;35.99;96116.13;4966708;28;19968;-48
2023/06/08 07:55:19;;;;;;;;;;;;;;;35.09;35.89;96116.38;4958037;28;19962;-49
2023/06/08 07:57:49;;;;;;;;;;;;;;;34.79;35.46;96107.72;4966518;28;19968;-46
2023/06/08 08:00:17;;;;;;;;;;;;;;;35.70;34.37;96114.88;4963292;28;19957;-46
2023/06/08 08:02:46;;;;;;;;;;;;;;;34.93;35.10;96118.66;4961753;28;19966;-49
2023/06/08 08:05:14;;;;;;;;;;;;;;;36.60;33.42;96107.19;4959448;28;19953;-48
2023/06/08 08:07:42;;;;;;;;;;;;;;;34.92;35.59;96114.25;4962713;28;20426;-49
2023/06/08 08:10:10;;;;;;;;;;;;;;;35.55;34.88;96104.28;4953471;28;19961;-51
2023/06/08 08:12:38;;;;;;;;;;;;;;;36.05;33.87;96110.41;4958640;28;19958;-45
2023/06/08 08:15:08;;;;;;;;;;;;;;;36.50;33.21;96103.94;4967327;28;19972;-47
2023/06/08 08:17:36;;;;;;;;;;;;;;;36.46;34.00;96102.94;4966367;28;19976;-49
2023/06/08 08:20:05;;;;;;;;;;;;;;;36.04;34.08;96103.28;4959521;28;19962;-48
2023/06/08 08:22:35;;;;;;;;;;;;;;;36.53;33.60;96092.31;4963085;28;19971;-49
2023/06/08 08:25:03;;;;;;;;;;;;;;;36.58;33.01;96094.91;4958747;28;19926;-45
2023/06/08 08:27:31;;;;;;;;;;;;;;;36.93;32.76;96090.25;4958959;28;19957;-44
2023/06/08 08:29:59;;;;;;;;;;;;;;;36.67;32.35;96089.41;4956717;28;19970;-52
2023/06/08 08:32:29;;;;;;;;;;;;;;;36.35;32.80;96094.19;4962891;28;19972;-43
2023/06/08 08:34:57;;;;;;;;;;;;;;;36.80;32.33;96094.78;4960454;28;20402;-45
2023/06/08 08:37:25;;;;;;;;;;;;;;;36.80;32.32;96091.22;4965061;28;19965;-44
2023/06/08 08:39:53;;;;;;;;;;;;;;;36.63;31.51;96099.44;4959253;28;19983;-48
2023/06/08 08:42:23;;;;;;;;;;;;;;;36.90;31.45;96093.66;4966087;28;19960;-45
2023/06/08 08:44:51;;;;;;;;;;;;;;;35.86;32.66;96087.84;4966179;28;19972;-49
2023/06/08 08:47:19;;;;;;;;;;;;;;;35.43;31.93;96094.69;4966297;28;19954;-45
2023/06/08 08:49:49;;;;;;;;;;;;;;;36.43;31.42;96089.84;4964833;28;20425;-48
2023/06/08 08:52:19;;;;;;;;;;;;;;;35.89;32.18;96089.94;4962106;28;19966;-45
2023/06/08 08:54:55;;;;;;;;;;;;;;;36.28;31.85;96088.34;4955941;28;19926;-48
2023/06/08 08:57:23;;;;;;;;;;;;;;;37.97;31.17;96092.09;4962782;28;19965;-44
2023/06/08 08:59:51;;;;;;;;;;;;;;;37.82;30.36;96092.56;4961814;28;19968;-46
2023/06/08 09:02:19;;;;;;;;;;;;;;;37.91;30.44;96085.13;4966338;28;19965;-46
2023/06/08 09:04:49;;;;;;;;;;;;;;;37.23;31.09;96084.91;4964568;28;19966;-45
2023/06/08 09:07:17;;;;;;;;;;;;;;;36.54;31.27;96091.97;4956873;28;19961;-45
2023/06/08 09:10:00;;;;;;;;;;;;;;;37.50;30.31;96089.28;4959257;28;19996;-45
2023/06/08 09:12:38;;;;;;;;;;;;;;;37.53;30.47;96081.16;4961504;28;21161;-47
2023/06/08 09:15:07;;;;;;;;;;;;;;;38.07;29.86;96079.91;4964125;28;20433;-51
2023/06/08 09:17:38;;;;;;;;;;;;;;;37.90;30.13;96076.06;4958776;28;19960;-45
2023/06/08 09:20:09;;;;;;;;;;;;;;;38.19;29.33;96071.72;4962625;28;19954;-50
2023/06/08 09:22:37;;;;;;;;;;;;;;;38.55;28.90;96067.66;4963614;28;19961;-45
2023/06/08 09:25:06;;;;;;;;;;;;;;;38.99;28.99;96076.41;4964997;28;19965;-45
2023/06/08 09:27:35;;;;;;;;;;;;;;;38.19;29.17;96074.47;4957987;28;19964;-45
2023/06/08 09:30:03;;;;;;;;;;;;;;;37.99;29.20;96071.34;4961413;28;19969;-47
2023/06/08 09:32:32;;;;;;;;;;;;;;;37.03;29.69;96069.91;4959451;28;19965;-46
2023/06/08 09:35:01;;;;;;;;;;;;;;;37.53;28.97;96070.16;4962065;28;20355;-48
2023/06/08 09:37:36;;;;;;;;;;;;;;;38.10;28.06;96063.53;4960683;28;19957;-45
2023/06/08 09:40:05;;;;;;;;;;;;;;;38.21;28.32;96067.50;4962283;28;20067;-45
2023/06/08 09:42:41;;;;;;;;;;;;;;;37.89;27.89;96063.44;4957634;28;19958;-46
2023/06/08 09:45:12;;;;;;;;;;;;;;;38.86;28.73;96048.81;4956116;28;19961;-48
2023/06/08 09:47:40;;;;;;;;;;;;;;;36.58;29.21;96051.78;4963941;28;19949;-49
2023/06/08 09:50:09;;;;;;;;;;;;;;;36.72;29.53;96054.38;4952559;28;19969;-51
2023/06/08 09:52:39;;;;;;;;;;;;;;;36.38;29.87;96052.34;4960649;28;19954;-53
2023/06/08 09:55:07;;;;;;;;;;;;;;;36.73;28.79;96055.16;4959651;28;19957;-50
2023/06/08 09:57:36;;;;;;;;;;;;;;;36.32;28.22;96053.63;4956560;28;20564;-47
2023/06/08 10:00:14;;;;;;;;;;;;;;;37.29;27.58;96045.91;4960572;28;19965;-54
2023/06/08 10:02:42;;;;;;;;;;;;;;;37.13;29.03;96050.31;4967083;28;19953;-48
2023/06/08 10:05:12;;;;;;;;;;;;;;;37.71;28.78;96042.59;4953236;28;19966;-52
2023/06/08 10:07:42;;;;;;;;;;;;;;;38.04;28.12;96042.00;4961264;28;19973;-47
2023/06/08 10:10:11;;;;;;;;;;;;;;;38.64;27.26;96038.88;4959244;28;19984;-47
2023/06/08 10:12:40;;;;;;;;;;;;;;;37.90;27.29;96051.31;4962415;28;19958;-48
2023/06/08 10:15:08;;;;;;;;;;;;;;;36.94;27.89;96044.34;4956683;28;19953;-49
2023/06/08 10:17:37;;;;;;;;;;;;;;;37.61;27.24;96046.50;4952168;28;19965;-48
2023/06/08 10:20:06;;;;;;;;;;;;;;;37.55;27.45;96056.09;4955042;28;19961;-45
2023/06/08 10:22:34;;;;;;;;;;;;;;;39.63;25.92;96043.66;4959814;28;19965;-44
2023/06/08 10:25:22;;;;;;;;;;;;;;;38.88;26.14;96045.69;4957466;28;19964;-46
2023/06/08 10:27:50;;;;;;;;;;;;;;;37.48;27.51;96050.28;4955634;28;19961;-45
2023/06/08 10:30:28;;;;;;;;;;;;;;;37.97;27.97;96039.78;4959876;28;19969;-46
2023/06/08 10:33:07;;;;;;;;;;;;;;;39.71;25.96;96030.94;4957740;28;19961;-45
2023/06/08 10:35:35;;;;;;;;;;;;;;;38.24;26.88;96027.47;4955707;28;19977;-45
2023/06/08 10:38:09;;;;;;;;;;;;;;;39.12;26.46;96029.25;4953965;28;19957;-51
2023/06/08 10:40:46;;;;;;;;;;;;;;;39.29;25.71;96020.03;4954839;28;20422;-45
2023/06/08 10:43:14;;;;;;;;;;;;;;;41.35;24.60;96013.03;4954629;28;19958;-48
2023/06/08 10:46:03;;;;;;;;;;;;;;;39.71;25.89;96027.38;4956852;28;20378;-47
2023/06/08 10:48:35;;;;;;;;;;;;;;;40.80;24.65;96006.34;4952346;28;19957;-47
2023/06/08 10:51:04;;;;;;;;;;;;;;;39.09;25.95;96012.56;4957477;28;19961;-47
2023/06/08 10:53:41;;;;;;;;;;;;;;;37.94;27.11;96010.94;4951889;28;19958;-54
2023/06/08 10:56:11;;;;;;;;;;;;;;;39.66;25.73;96005.50;4955095;28;20008;-44
2023/06/08 10:58:51;;;;;;;;;;;;;;;38.91;25.93;96000.91;4959812;28;19957;-44
2023/06/08 11:01:20;;;;;;;;;;;;;;;41.52;24.36;95997.28;4955858;28;20402;-48
2023/06/08 11:03:48;;;;;;;;;;;;;;;39.48;25.83;95994.66;4959789;28;20598;-54
2023/06/08 11:06:16;;;;;;;;;;;;;;;38.90;26.46;96005.63;4957307;28;19960;-49
2023/06/08 11:08:45;;;;;;;;;;;;;;;40.15;25.96;95997.28;4959306;28;20212;-50
2023/06/08 11:11:14;;;;;;;;;;;;;;;39.25;26.36;95996.19;4956712;28;19973;-45
2023/06/08 11:13:42;;;;;;;;;;;;;;;40.37;25.13;95994.03;4955987;28;19957;-48
2023/06/08 11:16:10;;;;;;;;;;;;;;;39.95;26.16;95996.22;4952328;28;19961;-52
2023/06/08 11:18:40;;;;;;;;;;;;;;;38.79;26.42;95998.09;4956174;28;19961;-50
2023/06/08 11:21:08;;;;;;;;;;;;;;;37.77;26.84;96000.00;4962518;28;19968;-47
2023/06/08 11:23:37;;;;;;;;;;;;;;;38.52;25.65;95983.72;4954223;28;19969;-46
2023/06/08 11:26:05;;;;;;;;;;;;;;;39.00;25.77;95992.56;4950564;28;19965;-46
2023/06/08 11:28:34;;;;;;;;;;;;;;;40.95;24.31;95983.50;4955312;28;19968;-47
2023/06/08 11:31:06;;;;;;;;;;;;;;;38.73;26.46;95999.44;4957640;28;19965;-43
2023/06/08 11:33:34;;;;;;;;;;;;;;;38.55;26.88;95996.03;4949636;28;19961;-52
2023/06/08 11:36:03;;;;;;;;;;;;;;;39.18;25.57;95991.22;4949718;28;19974;-48
2023/06/08 11:38:34;;;;;;;;;;;;;;;39.78;25.21;95994.47;4961523;28;19965;-49
2023/06/08 11:41:01;;;;;;;;;;;;;;;39.15;25.99;95991.91;4961851;28;19958;-45
2023/06/08 11:43:30;;;;;;;;;;;;;;;39.43;24.90;95992.13;4959228;28;20496;-52
2023/06/08 11:46:00;;;;;;;;;;;;;;;40.11;23.95;95984.13;4960503;28;20373;-49
2023/06/08 11:48:28;;;;;;;;;;;;;;;40.68;23.91;95981.53;4956619;28;19969;-51
2023/06/08 11:50:56;;;;;;;;;;;;;;;39.60;24.81;95989.16;4953479;28;19961;-48
2023/06/08 11:53:24;;;;;;;;;;;;;;;40.18;24.60;95991.06;4960678;28;20381;-51
2023/06/08 11:55:54;;;;;;;;;;;;;;;40.51;24.47;95983.38;4954257;28;19977;-48
2023/06/08 11:58:25;;;;;;;;;;;;;;;40.08;23.89;95984.81;4959219;28;19961;-52
2023/06/08 12:01:07;;;;;;;;;;;;;;;40.02;24.80;95975.16;4958885;28;20350;-46
2023/06/08 12:03:42;;;;;;;;;;;;;;;39.38;25.35;95973.03;4956845;28;19961;-45
2023/06/08 12:06:10;;;;;;;;;;;;;;;38.57;26.17;95977.19;4958051;28;19957;-52
2023/06/08 12:08:38;;;;;;;;;;;;;;;41.48;23.66;95966.75;4956939;28;19965;-46
2023/06/08 12:11:10;;;;;;;;;;;;;;;39.21;24.98;95970.44;4957219;28;19972;-53
2023/06/08 12:13:38;;;;;;;;;;;;;;;39.91;24.66;95968.47;4957753;28;20407;-45
2023/06/08 12:16:09;;;;;;;;;;;;;;;39.99;23.15;95975.84;4955236;28;19961;-52
2023/06/08 12:18:37;;;;;;;;;;;;;;;40.71;22.87;95964.22;4965952;28;19964;-45
2023/06/08 12:21:05;;;;;;;;;;;;;;;39.26;23.86;95970.25;4955596;28;19965;-52
2023/06/08 12:23:33;;;;;;;;;;;;;;;39.75;23.77;95973.91;4958716;28;20725;-44
2023/06/08 12:26:02;;;;;;;;;;;;;;;40.48;23.65;95967.50;4953312;28;19966;-45
2023/06/08 12:28:31;;;;;;;;;;;;;;;41.19;22.13;95960.47;4959412;28;20359;-47
2023/06/08 12:31:00;;;;;;;;;;;;;;;42.23;21.13;95957.47;4954715;28;19958;-48
2023/06/08 12:33:31;;;;;;;;;;;;;;;41.42;22.62;95960.63;4964631;28;19972;-46
2023/06/08 12:35:59;;;;;;;;;;;;;;;39.57;24.73;95966.94;4959116;28;19954;-49
2023/06/08 12:38:27;;;;;;;;;;;;;;;39.49;24.48;95960.41;4953201;28;19962;-43
2023/06/08 12:40:56;;;;;;;;;;;;;;;40.44;23.33;95947.25;4960646;28;19965;-43
2023/06/08 12:43:24;;;;;;;;;;;;;;;40.59;22.98;95947.69;4956570;28;19962;-45
2023/06/08 12:45:53;;;;;;;;;;;;;;;40.93;22.83;95940.75;4953460;28;20408;-46
2023/06/08 12:48:22;;;;;;;;;;;;;;;42.12;21.40;95937.84;4955864;28;19992;-48
2023/06/08 12:50:51;;;;;;;;;;;;;;;41.53;21.74;95940.75;4953611;28;19957;-49
2023/06/08 12:53:19;;;;;;;;;;;;;;;40.22;23.83;95945.00;4960308;28;19965;-45
2023/06/08 12:55:49;;;;;;;;;;;;;;;39.95;24.07;95932.69;4960964;28;20414;-45
2023/06/08 12:58:17;;;;;;;;;;;;;;;40.30;23.67;95933.81;4964694;28;19972;-45